Time;durP1;ratioP1;P1;durP2;ratioP2;P2;SDS_P1;SDS_P2;PMS_P1;PMS_P2;Temp;Humidity;BMP_temperature;BMP_pressure;BME280_temperature;BME280_humidity;BME280_pressure;Samples;Min_cycle;Max_cycle;Signal;HPM_P1;HPM_P2
2022/07/12 00:02:20;;;;;;;10.77;6.37;;;;;;;;;;4191677;34;20090;-70
2022/07/12 00:33:13;;;;;;;7.12;6.15;;;;;;;;;;4782298;28;20115;-65
2022/07/12 00:35:39;;;;;;;7.03;6.20;;;;;;;;;;4174334;34;20138;-66
2022/07/12 00:38:05;;;;;;;8.88;6.30;;;;;;;;;;4179597;34;20150;-66
2022/07/12 00:40:31;;;;;;;8.20;6.70;;;;;;;;;;4191429;34;20109;-66
2022/07/12 00:42:57;;;;;;;7.87;6.57;;;;;;;;;;4191215;34;20226;-67
2022/07/12 00:45:23;;;;;;;8.63;5.85;;;;;;;;;;4191574;34;20106;-66
2022/07/12 00:47:50;;;;;;;13.65;6.70;;;;;;;;;;4178604;34;20126;-67
2022/07/12 00:50:17;;;;;;;6.95;5.62;;;;;;;;;;4191238;34;20217;-67
2022/07/12 00:52:45;;;;;;;7.70;5.95;;;;;;;;;;4191219;34;20110;-66
2022/07/12 00:55:13;;;;;;;11.88;5.10;;;;;;;;;;4191458;34;20211;-67
2022/07/12 00:57:40;;;;;;;14.98;7.65;;;;;;;;;;4178712;34;20215;-67
2022/07/12 01:00:08;;;;;;;12.73;6.12;;;;;;;;;;4191612;34;20094;-67
2022/07/12 01:02:35;;;;;;;6.85;5.62;;;;;;;;;;4167225;34;20105;-67
2022/07/12 01:05:02;;;;;;;8.32;5.65;;;;;;;;;;4178428;34;20101;-66
2022/07/12 01:07:28;;;;;;;9.82;5.78;;;;;;;;;;4191270;34;20090;-65
2022/07/12 01:09:55;;;;;;;7.15;5.78;;;;;;;;;;4191001;34;20129;-66
2022/07/12 01:12:22;;;;;;;8.55;6.75;;;;;;;;;;4178310;34;20192;-66
2022/07/12 01:14:49;;;;;;;8.90;6.72;;;;;;;;;;4191073;34;20114;-66
2022/07/12 01:17:18;;;;;;;8.50;6.12;;;;;;;;;;4191384;34;20107;-66
2022/07/12 01:19:44;;;;;;;9.55;6.65;;;;;;;;;;4190889;34;20450;-67
2022/07/12 01:22:11;;;;;;;8.65;6.03;;;;;;;;;;4166969;34;20629;-68
2022/07/12 01:24:37;;;;;;;7.55;6.32;;;;;;;;;;4178129;34;20608;-68
2022/07/12 01:27:04;;;;;;;9.25;5.95;;;;;;;;;;4191058;34;20161;-68
2022/07/12 01:29:30;;;;;;;15.98;6.22;;;;;;;;;;4190923;34;20106;-68
2022/07/12 01:32:24;;;;;;;19.42;7.07;;;;;;;;;;4178019;34;20133;-69
2022/07/12 01:34:46;;;;;;;5.85;5.12;;;;;;;;;;4190809;34;20130;-69
2022/07/12 01:37:14;;;;;;;11.23;5.45;;;;;;;;;;4189555;34;20111;-69
2022/07/12 01:39:40;;;;;;;9.45;5.72;;;;;;;;;;4189767;34;20588;-69
2022/07/12 01:42:07;;;;;;;7.10;5.35;;;;;;;;;;4178067;34;20098;-68
2022/07/12 01:44:33;;;;;;;9.95;6.80;;;;;;;;;;4190195;34;20541;-70
2022/07/12 01:46:59;;;;;;;12.43;6.03;;;;;;;;;;4190647;34;20126;-70
2022/07/12 01:49:26;;;;;;;10.05;5.95;;;;;;;;;;4166673;34;20563;-69
2022/07/12 01:51:52;;;;;;;6.65;4.93;;;;;;;;;;4189310;34;20530;-70
2022/07/12 01:54:18;;;;;;;7.53;4.97;;;;;;;;;;4178174;34;20467;-70
2022/07/12 01:56:44;;;;;;;8.32;4.70;;;;;;;;;;4177915;34;20765;-70
2022/07/12 01:59:10;;;;;;;11.15;5.43;;;;;;;;;;4189209;34;20098;-69
2022/07/12 02:01:37;;;;;;;6.68;4.93;;;;;;;;;;4190723;34;20194;-69
2022/07/12 02:04:04;;;;;;;7.70;5.65;;;;;;;;;;4189500;34;20224;-69
2022/07/12 02:06:30;;;;;;;8.13;5.22;;;;;;;;;;4178122;34;20099;-69
2022/07/12 02:08:56;;;;;;;6.37;5.50;;;;;;;;;;4178089;34;20148;-68
2022/07/12 02:11:22;;;;;;;8.65;6.07;;;;;;;;;;4190788;34;20527;-67
2022/07/12 02:13:48;;;;;;;9.52;6.00;;;;;;;;;;4190503;34;20202;-68
2022/07/12 02:16:14;;;;;;;7.70;5.43;;;;;;;;;;4189174;34;20142;-68
2022/07/12 02:18:40;;;;;;;14.73;5.72;;;;;;;;;;4190547;34;20134;-68
2022/07/12 02:21:06;;;;;;;9.75;4.95;;;;;;;;;;4190604;34;20218;-68
2022/07/12 02:23:32;;;;;;;8.00;5.93;;;;;;;;;;4190480;34;20140;-68
2022/07/12 02:25:58;;;;;;;7.05;5.80;;;;;;;;;;4190488;34;20523;-68
2022/07/12 02:28:24;;;;;;;13.35;5.75;;;;;;;;;;4189023;34;20121;-69
2022/07/12 02:30:50;;;;;;;5.87;4.53;;;;;;;;;;4190401;34;20126;-69
2022/07/12 02:33:16;;;;;;;7.20;5.10;;;;;;;;;;4166073;34;20122;-69
2022/07/12 02:35:43;;;;;;;6.40;5.80;;;;;;;;;;4190670;34;20110;-70
2022/07/12 02:38:08;;;;;;;6.32;4.00;;;;;;;;;;4177749;34;20462;-70
2022/07/12 02:43:20;;;;;;;5.97;5.10;;;;;;;;;;4190416;34;20128;-69
2022/07/12 02:45:46;;;;;;;7.32;5.72;;;;;;;;;;4165994;34;20125;-69
2022/07/12 02:48:12;;;;;;;6.12;5.53;;;;;;;;;;4190414;34;20237;-69
2022/07/12 02:50:39;;;;;;;12.00;5.93;;;;;;;;;;4190149;34;20110;-70
2022/07/12 02:53:05;;;;;;;9.40;5.50;;;;;;;;;;4190071;34;20226;-67
2022/07/12 02:55:31;;;;;;;6.10;5.45;;;;;;;;;;4190122;34;20110;-68
2022/07/12 02:57:57;;;;;;;8.00;5.50;;;;;;;;;;4191859;34;20213;-68
2022/07/12 03:00:23;;;;;;;9.10;5.30;;;;;;;;;;4192110;34;20507;-67
2022/07/12 03:02:49;;;;;;;11.32;6.03;;;;;;;;;;4192260;34;20132;-68
2022/07/12 03:05:15;;;;;;;10.70;5.93;;;;;;;;;;4192089;34;20095;-67
2022/07/12 03:07:41;;;;;;;12.23;6.05;;;;;;;;;;4192108;34;20546;-68
2022/07/12 03:10:08;;;;;;;9.30;4.03;;;;;;;;;;4190759;34;20439;-67
2022/07/12 03:12:34;;;;;;;8.52;6.47;;;;;;;;;;4192075;34;20659;-68
2022/07/12 03:15:01;;;;;;;12.85;5.93;;;;;;;;;;4190770;34;20114;-68
2022/07/12 03:17:28;;;;;;;11.50;5.68;;;;;;;;;;4179343;34;20585;-67
2022/07/12 03:19:54;;;;;;;8.27;5.78;;;;;;;;;;4190619;34;20121;-68
2022/07/12 03:22:20;;;;;;;6.93;5.82;;;;;;;;;;4192018;34;20534;-68
2022/07/12 03:24:46;;;;;;;9.48;4.78;;;;;;;;;;4179113;34;20234;-69
2022/07/12 03:27:12;;;;;;;9.00;5.03;;;;;;;;;;4192073;34;20857;-68
2022/07/12 03:29:39;;;;;;;9.38;4.45;;;;;;;;;;4190485;34;20519;-68
2022/07/12 03:32:06;;;;;;;8.32;5.35;;;;;;;;;;4190490;34;20498;-66
2022/07/12 03:34:33;;;;;;;3.12;2.35;;;;;;;;;;4190626;34;20134;-67
2022/07/12 03:37:18;;;;;;;3.53;2.08;;;;;;;;;;4167649;34;20111;-68
2022/07/12 03:39:44;;;;;;;2.67;2.33;;;;;;;;;;4178709;34;20110;-68
2022/07/12 03:42:50;;;;;;;;;;;;;;;;;;;;;
2022/07/12 03:45:46;;;;;;;7.78;4.35;;;;;;;;;;4169410;34;20110;-68
2022/07/12 03:48:12;;;;;;;13.40;5.20;;;;;;;;;;4191845;34;20116;-70
2022/07/12 03:50:38;;;;;;;5.03;4.22;;;;;;;;;;4192002;34;20103;-66
2022/07/12 03:53:04;;;;;;;1.23;1.23;;;;;;;;;;4191748;34;20710;-67
2022/07/12 03:55:30;;;;;;;8.07;4.62;;;;;;;;;;4190443;34;20122;-68
2022/07/12 03:57:56;;;;;;;1.62;1.52;;;;;;;;;;4191965;34;20157;-67
2022/07/12 04:00:22;;;;;;;3.37;2.45;;;;;;;;;;4191874;34;20125;-67
2022/07/12 04:02:48;;;;;;;5.28;4.55;;;;;;;;;;4190587;34;20113;-67
2022/07/12 04:05:14;;;;;;;3.80;2.97;;;;;;;;;;4191799;34;20595;-67
2022/07/12 04:07:40;;;;;;;8.30;4.53;;;;;;;;;;4191399;34;20217;-73
2022/07/12 04:10:07;;;;;;;7.22;4.45;;;;;;;;;;4179345;34;20566;-65
2022/07/12 04:12:34;;;;;;;7.45;4.07;;;;;;;;;;4191855;34;20093;-66
2022/07/12 04:15:00;;;;;;;7.15;4.50;;;;;;;;;;4191630;34;20114;-65
2022/07/12 04:17:26;;;;;;;6.37;3.83;;;;;;;;;;4191670;34;20537;-63
2022/07/12 04:19:53;;;;;;;7.15;4.55;;;;;;;;;;4167690;34;20121;-64
2022/07/12 04:22:19;;;;;;;11.48;4.50;;;;;;;;;;4191787;34;20214;-66
2022/07/12 04:24:45;;;;;;;8.77;4.70;;;;;;;;;;4191612;34;20162;-64
2022/07/12 04:27:11;;;;;;;5.32;4.80;;;;;;;;;;4191583;34;20106;-65
2022/07/12 04:29:37;;;;;;;11.18;5.37;;;;;;;;;;4191561;34;20099;-64
2022/07/12 04:32:03;;;;;;;4.37;3.15;;;;;;;;;;4191589;34;20116;-65
2022/07/12 04:34:29;;;;;;;9.70;4.05;;;;;;;;;;4191507;34;20134;-66
2022/07/12 04:36:55;;;;;;;4.65;3.17;;;;;;;;;;4191535;34;20126;-66
2022/07/12 04:39:21;;;;;;;5.90;4.37;;;;;;;;;;4191532;34;20133;-66
2022/07/12 04:41:47;;;;;;;2.25;1.52;;;;;;;;;;4191521;34;20114;-67
2022/07/12 04:44:13;;;;;;;1.20;1.20;;;;;;;;;;4191449;34;20191;-66
2022/07/12 04:46:39;;;;;;;6.30;4.53;;;;;;;;;;4191747;34;20126;-66
2022/07/12 04:49:06;;;;;;;1.48;1.37;;;;;;;;;;4191366;34;20115;-67
2022/07/12 04:51:32;;;;;;;6.47;4.12;;;;;;;;;;4191341;34;20121;-68
2022/07/12 04:53:58;;;;;;;7.10;4.47;;;;;;;;;;4178565;34;20122;-69
2022/07/12 04:56:27;;;;;;;9.82;4.57;;;;;;;;;;4178704;34;20231;-69
2022/07/12 04:58:53;;;;;;;9.50;4.65;;;;;;;;;;4191369;34;20122;-69
2022/07/12 05:01:19;;;;;;;8.45;4.85;;;;;;;;;;4191232;34;20250;-66
2022/07/12 05:03:45;;;;;;;7.68;4.75;;;;;;;;;;4191186;34;20161;-67
2022/07/12 05:06:11;;;;;;;11.15;4.87;;;;;;;;;;4191406;34;20695;-67
2022/07/12 05:08:37;;;;;;;5.28;4.03;;;;;;;;;;4191139;34;20134;-66
2022/07/12 05:11:03;;;;;;;5.62;3.60;;;;;;;;;;4178369;34;20129;-67
2022/07/12 05:13:32;;;;;;;3.25;2.87;;;;;;;;;;4191120;34;20542;-66
2022/07/12 05:16:01;;;;;;;2.00;1.80;;;;;;;;;;4191049;34;20546;-66
2022/07/12 05:18:27;;;;;;;3.75;2.92;;;;;;;;;;4189711;34;20122;-64
2022/07/12 05:20:53;;;;;;;7.70;3.62;;;;;;;;;;4190965;34;20137;-64
2022/07/12 05:23:20;;;;;;;2.58;2.20;;;;;;;;;;4189884;34;20123;-67
2022/07/12 05:25:47;;;;;;;2.47;2.00;;;;;;;;;;4190951;34;20478;-68
2022/07/12 05:28:16;;;;;;;6.50;4.12;;;;;;;;;;4178331;34;20110;-65
2022/07/12 05:30:43;;;;;;;5.03;3.37;;;;;;;;;;4166813;34;20114;-67
2022/07/12 05:33:09;;;;;;;1.95;1.83;;;;;;;;;;4190856;34;20482;-67
2022/07/12 05:35:46;;;;;;;1.45;1.33;;;;;;;;;;4190982;34;20130;-68
2022/07/12 05:38:41;;;;;;;12.00;3.70;;;;;;;;;;4189727;34;20588;-78
2022/07/12 05:44:48;;;;;;;6.68;4.12;;;;;;;;;;4134914;34;20150;-69
2022/07/12 05:47:29;;;;;;;4.85;3.40;;;;;;;;;;4161015;34;20630;-66
2022/07/12 05:49:55;;;;;;;5.37;3.78;;;;;;;;;;4160856;34;20780;-66
2022/07/12 05:55:06;;;;;;;5.62;4.32;;;;;;;;;;4161206;34;20134;-67
2022/07/12 05:57:32;;;;;;;4.50;3.78;;;;;;;;;;4161440;34;20130;-66
2022/07/12 05:59:58;;;;;;;4.82;4.05;;;;;;;;;;4160855;34;20138;-67
2022/07/12 06:02:24;;;;;;;6.05;3.87;;;;;;;;;;4161451;34;20118;-67
2022/07/12 06:04:50;;;;;;;8.80;4.65;;;;;;;;;;4160903;34;21038;-66
2022/07/12 06:07:16;;;;;;;13.18;3.95;;;;;;;;;;4161359;34;20111;-67
2022/07/12 06:09:42;;;;;;;12.37;4.37;;;;;;;;;;4189028;34;20584;-66
2022/07/12 06:12:08;;;;;;;5.57;4.00;;;;;;;;;;4190948;34;20104;-65
2022/07/12 06:14:35;;;;;;;7.32;3.20;;;;;;;;;;4190835;34;20207;-72
2022/07/12 06:17:01;;;;;;;5.72;4.72;;;;;;;;;;4178283;34;20114;-69
2022/07/12 06:19:27;;;;;;;9.48;3.75;;;;;;;;;;4178500;34;20228;-68
2022/07/12 06:21:54;;;;;;;5.10;3.58;;;;;;;;;;4190693;34;20213;-70
2022/07/12 06:24:20;;;;;;;6.00;3.65;;;;;;;;;;4191018;34;20473;-67
2022/07/12 06:26:46;;;;;;;7.62;4.25;;;;;;;;;;4189629;34;20122;-70
2022/07/12 06:29:12;;;;;;;8.43;3.80;;;;;;;;;;4190873;34;20117;-68
2022/07/12 06:31:38;;;;;;;7.28;3.67;;;;;;;;;;4190224;34;20121;-71
2022/07/12 06:34:04;;;;;;;4.12;3.70;;;;;;;;;;4190700;34;20206;-69
2022/07/12 06:36:49;;;;;;;;;;;;;;;;;;;;;
2022/07/12 06:40:16;;;;;;;;;;;;;;;;;;;;;
2022/07/12 06:50:09;;;;;;;6.80;4.15;;;;;;;;;;4519373;29;20130;-68
2022/07/12 06:56:15;;;;;;;9.40;3.55;;;;;;;;;;4316038;29;20117;-69
2022/07/12 07:16:25;;;;;;;11.77;4.37;;;;;;;;;;4240973;29;20522;-68
2022/07/12 07:18:51;;;;;;;4.60;3.60;;;;;;;;;;4086280;34;20144;-68
2022/07/12 07:21:17;;;;;;;5.47;4.22;;;;;;;;;;4106928;34;20112;-68
2022/07/12 07:23:43;;;;;;;8.30;3.85;;;;;;;;;;4133136;34;20111;-69
2022/07/12 07:26:09;;;;;;;9.65;4.62;;;;;;;;;;4135719;34;20480;-67
2022/07/12 07:30:51;;;;;;;14.43;3.90;;;;;;;;;;4135698;34;20128;-66
2022/07/12 07:31:21;;;;;;;6.50;3.85;;;;;;;;;;4121037;34;20092;-69
2022/07/12 07:33:47;;;;;;;5.97;4.07;;;;;;;;;;4133467;34;20122;-68
2022/07/12 07:36:13;;;;;;;6.10;3.95;;;;;;;;;;4135697;34;20104;-68
2022/07/12 07:38:39;;;;;;;13.70;4.57;;;;;;;;;;4135626;34;20128;-68
2022/07/12 07:41:05;;;;;;;9.90;4.43;;;;;;;;;;4135850;34;20215;-68
2022/07/12 07:43:31;;;;;;;5.70;4.57;;;;;;;;;;4124598;34;20132;-68
2022/07/12 07:45:58;;;;;;;6.60;4.90;;;;;;;;;;4136719;34;20212;-67
2022/07/12 07:48:24;;;;;;;11.23;4.93;;;;;;;;;;4137576;34;20210;-69
2022/07/12 07:50:50;;;;;;;5.62;4.12;;;;;;;;;;4137805;34;20099;-69
2022/07/12 07:53:17;;;;;;;5.97;3.87;;;;;;;;;;4136323;34;20123;-68
2022/07/12 07:55:43;;;;;;;6.87;3.12;;;;;;;;;;4137992;34;20182;-67
2022/07/12 07:58:09;;;;;;;5.78;3.37;;;;;;;;;;4113868;34;20103;-69
2022/07/12 08:00:35;;;;;;;5.18;3.75;;;;;;;;;;4137605;34;20182;-67
2022/07/12 08:03:01;;;;;;;11.73;4.43;;;;;;;;;;4137454;34;20123;-67
2022/07/12 08:05:27;;;;;;;8.15;4.68;;;;;;;;;;4137898;34;20204;-67
2022/07/12 08:07:53;;;;;;;7.28;3.55;;;;;;;;;;4137411;34;20131;-67
2022/07/12 08:10:19;;;;;;;7.10;4.30;;;;;;;;;;4136059;34;20123;-66
2022/07/12 08:12:45;;;;;;;7.20;4.30;;;;;;;;;;4137296;34;20469;-68
2022/07/12 08:15:11;;;;;;;8.43;4.68;;;;;;;;;;4135994;34;20123;-66
2022/07/12 08:17:37;;;;;;;4.32;3.78;;;;;;;;;;4150796;34;20197;-68
2022/07/12 08:20:04;;;;;;;9.50;4.60;;;;;;;;;;4150816;34;20134;-68
2022/07/12 08:22:31;;;;;;;12.40;3.85;;;;;;;;;;4150863;34;20116;-67
2022/07/12 08:24:57;;;;;;;4.85;3.50;;;;;;;;;;4150672;34;20107;-68
2022/07/12 08:27:23;;;;;;;4.80;3.55;;;;;;;;;;4138249;34;20127;-68
2022/07/12 08:29:50;;;;;;;7.60;4.22;;;;;;;;;;4149614;34;20125;-68
2022/07/12 08:32:16;;;;;;;3.42;3.00;;;;;;;;;;4151138;34;20231;-68
2022/07/12 08:34:42;;;;;;;7.00;4.47;;;;;;;;;;4150927;34;20821;-68
2022/07/12 08:37:08;;;;;;;5.80;3.60;;;;;;;;;;4150760;34;20119;-68
2022/07/12 08:39:34;;;;;;;4.75;4.00;;;;;;;;;;4150671;34;20580;-68
2022/07/12 08:42:00;;;;;;;5.32;4.05;;;;;;;;;;4150680;34;20126;-68
2022/07/12 08:44:26;;;;;;;6.25;3.33;;;;;;;;;;4150580;34;20119;-69
2022/07/12 08:46:52;;;;;;;7.37;3.05;;;;;;;;;;4150645;34;20636;-69
2022/07/12 08:49:18;;;;;;;6.47;3.47;;;;;;;;;;4137990;34;20122;-69
2022/07/12 08:51:45;;;;;;;4.15;3.67;;;;;;;;;;4150596;34;20216;-68
2022/07/12 08:54:12;;;;;;;11.18;3.50;;;;;;;;;;4150079;34;20121;-67
2022/07/12 08:56:39;;;;;;;4.93;3.60;;;;;;;;;;4150537;34;20126;-68
2022/07/12 08:59:16;;;;;;;21.40;4.68;;;;;;;;;;4137886;34;20235;-67
2022/07/12 09:01:50;;;;;;;7.70;3.58;;;;;;;;;;4137931;34;20501;-66
2022/07/12 09:04:21;;;;;;;5.93;3.67;;;;;;;;;;4150429;34;20207;-66
2022/07/12 09:06:48;;;;;;;3.70;3.10;;;;;;;;;;4150503;34;20212;-67
2022/07/12 09:09:31;;;;;;;5.75;3.58;;;;;;;;;;4133830;34;20107;-65
2022/07/12 09:11:58;;;;;;;4.80;3.30;;;;;;;;;;4129928;34;20464;-66
2022/07/12 09:14:24;;;;;;;5.55;3.87;;;;;;;;;;4130865;34;20191;-67
2022/07/12 09:17:12;;;;;;;6.57;3.80;;;;;;;;;;4148331;34;20186;-66
2022/07/12 09:19:38;;;;;;;10.57;3.80;;;;;;;;;;4143876;34;20102;-66
2022/07/12 09:22:14;;;;;;;6.45;3.47;;;;;;;;;;4131461;34;20103;-67
2022/07/12 09:24:40;;;;;;;6.93;4.10;;;;;;;;;;4124450;34;20198;-64
2022/07/12 09:27:06;;;;;;;4.45;3.60;;;;;;;;;;4147788;34;20224;-69
2022/07/12 09:29:34;;;;;;;10.43;3.87;;;;;;;;;;4144833;34;20531;-66
2022/07/12 09:37:42;;;;;;;8.13;3.97;;;;;;;;;;4148020;34;20125;-67
2022/07/12 09:40:09;;;;;;;7.32;3.90;;;;;;;;;;4135040;34;20131;-65
2022/07/12 09:42:35;;;;;;;5.40;3.80;;;;;;;;;;4136729;34;20188;-66
2022/07/12 09:45:02;;;;;;;3.75;3.40;;;;;;;;;;4136686;34;20921;-67
2022/07/12 09:47:28;;;;;;;5.05;3.80;;;;;;;;;;4136976;34;20138;-66
2022/07/12 09:49:54;;;;;;;7.40;3.97;;;;;;;;;;4124137;34;20115;-67
2022/07/12 09:52:22;;;;;;;5.18;3.75;;;;;;;;;;4138336;34;20122;-66
2022/07/12 09:54:52;;;;;;;9.15;3.40;;;;;;;;;;4136696;34;20100;-66
2022/07/12 09:57:25;;;;;;;4.70;3.50;;;;;;;;;;4138462;34;20130;-65
2022/07/12 09:59:52;;;;;;;6.00;4.00;;;;;;;;;;4143941;34;20127;-66
2022/07/12 10:02:19;;;;;;;4.15;3.28;;;;;;;;;;4142530;34;20107;-65
2022/07/12 10:04:46;;;;;;;6.57;3.97;;;;;;;;;;4149749;34;20178;-66
2022/07/12 10:07:18;;;;;;;4.40;4.00;;;;;;;;;;4149355;34;20115;-66
2022/07/12 10:09:46;;;;;;;7.32;4.28;;;;;;;;;;4148805;34;20143;-66
2022/07/12 10:12:15;;;;;;;8.80;3.50;;;;;;;;;;4149930;34;20279;-74
2022/07/12 10:14:42;;;;;;;2.45;2.25;;;;;;;;;;4149744;34;20597;-67
2022/07/12 10:17:12;;;;;;;6.53;3.55;;;;;;;;;;4149886;34;20454;-67
2022/07/12 10:19:38;;;;;;;7.37;3.67;;;;;;;;;;4137871;34;20118;-65
2022/07/12 10:22:07;;;;;;;5.30;4.22;;;;;;;;;;4150104;34;21086;-66
2022/07/12 10:24:33;;;;;;;4.37;3.60;;;;;;;;;;4137175;34;20102;-67
2022/07/12 10:27:14;;;;;;;4.32;3.78;;;;;;;;;;4150068;34;20099;-68
2022/07/12 10:29:40;;;;;;;6.22;3.62;;;;;;;;;;4149724;34;20127;-68
2022/07/12 10:32:26;;;;;;;6.43;3.90;;;;;;;;;;4149759;34;20108;-67
2022/07/12 10:35:07;;;;;;;;;;;;;;;;;;4150076;34;20129;-67
2022/07/12 10:37:34;;;;;;;6.80;3.70;;;;;;;;;;4149671;34;20378;-65
2022/07/12 10:40:16;;;;;;;4.57;3.53;;;;;;;;;;4149654;34;20476;-67
2022/07/12 10:43:08;;;;;;;6.82;3.92;;;;;;;;;;4149606;34;20118;-68
2022/07/12 10:45:38;;;;;;;5.28;3.55;;;;;;;;;;4136505;34;20202;-67
2022/07/12 10:48:05;;;;;;;6.82;2.95;;;;;;;;;;4148280;34;20110;-67
2022/07/12 10:50:48;;;;;;;8.15;3.05;;;;;;;;;;4148218;34;20487;-68
2022/07/12 10:53:21;;;;;;;4.07;3.60;;;;;;;;;;4149536;34;20099;-69
2022/07/12 10:56:15;;;;;;;5.85;3.20;;;;;;;;;;4136981;34;20123;-70
2022/07/12 10:58:55;;;;;;;6.45;3.65;;;;;;;;;;4149478;34;20138;-71
2022/07/12 11:01:25;;;;;;;9.48;3.35;;;;;;;;;;4137261;34;20102;-66
2022/07/12 11:03:57;;;;;;;3.85;3.05;;;;;;;;;;4149417;34;20196;-66
2022/07/12 11:06:26;;;;;;;5.05;3.12;;;;;;;;;;4149704;34;20093;-63
2022/07/12 11:08:56;;;;;;;4.75;3.28;;;;;;;;;;4149307;34;20115;-64
2022/07/12 11:11:25;;;;;;;5.15;3.33;;;;;;;;;;4149322;34;20130;-63
2022/07/12 11:13:51;;;;;;;5.20;3.60;;;;;;;;;;4149367;34;20135;-64
2022/07/12 11:16:17;;;;;;;5.90;3.17;;;;;;;;;;4149240;34;20137;-63
2022/07/12 11:18:44;;;;;;;6.07;4.50;;;;;;;;;;4151031;34;20186;-65
2022/07/12 11:21:10;;;;;;;7.78;5.37;;;;;;;;;;4151335;34;20103;-65
2022/07/12 11:23:38;;;;;;;4.53;2.80;;;;;;;;;;4151357;34;20577;-64
2022/07/12 11:26:05;;;;;;;4.00;3.50;;;;;;;;;;4151714;34;20418;-65
2022/07/12 11:28:31;;;;;;;9.10;4.30;;;;;;;;;;4151550;34;20098;-65
2022/07/12 11:31:12;;;;;;;4.07;3.08;;;;;;;;;;4151413;34;20293;-65
2022/07/12 11:33:46;;;;;;;4.68;3.55;;;;;;;;;;4151387;34;20117;-65
2022/07/12 11:36:13;;;;;;;7.05;3.33;;;;;;;;;;4138860;34;20149;-65
2022/07/12 11:38:43;;;;;;;5.32;2.17;;;;;;;;;;4151361;34;20107;-64
2022/07/12 11:41:11;;;;;;;5.62;3.20;;;;;;;;;;4149625;34;20125;-65
2022/07/12 11:43:37;;;;;;;7.62;4.85;;;;;;;;;;4151135;34;20115;-65
2022/07/12 11:46:05;;;;;;;7.87;4.80;;;;;;;;;;4151575;34;20496;-65
2022/07/12 11:48:34;;;;;;;14.40;4.50;;;;;;;;;;4151118;34;20107;-65
2022/07/12 11:51:05;;;;;;;19.35;3.67;;;;;;;;;;4150349;34;20115;-64
2022/07/12 11:53:32;;;;;;;16.70;3.53;;;;;;;;;;4149772;34;20212;-63
2022/07/12 11:56:00;;;;;;;8.13;3.28;;;;;;;;;;4151060;34;20110;-64
2022/07/12 11:58:27;;;;;;;16.25;4.07;;;;;;;;;;4149480;34;20519;-64
2022/07/12 12:00:54;;;;;;;17.48;3.35;;;;;;;;;;4151138;34;20134;-64
2022/07/12 12:03:22;;;;;;;9.35;3.47;;;;;;;;;;4150992;34;20471;-64
2022/07/12 12:05:50;;;;;;;5.10;2.50;;;;;;;;;;4151227;34;20127;-64
2022/07/12 12:08:17;;;;;;;9.00;2.47;;;;;;;;;;4138363;34;20209;-62
2022/07/12 12:10:56;;;;;;;9.18;2.67;;;;;;;;;;4149674;34;20188;-63
2022/07/12 12:13:22;;;;;;;12.00;2.87;;;;;;;;;;4150812;34;20471;-64
2022/07/12 12:15:57;;;;;;;9.30;3.17;;;;;;;;;;4138259;34;20139;-63
2022/07/12 12:18:38;;;;;;;5.20;2.95;;;;;;;;;;4151148;34;20115;-63
2022/07/12 12:21:06;;;;;;;4.37;2.35;;;;;;;;;;4150807;34;20091;-64
2022/07/12 12:23:32;;;;;;;3.97;2.42;;;;;;;;;;4150818;34;20471;-64
2022/07/12 12:26:08;;;;;;;3.42;2.28;;;;;;;;;;4151741;34;20533;-64
2022/07/12 12:28:48;;;;;;;1.77;1.55;;;;;;;;;;4149714;34;20099;-63
2022/07/12 12:31:19;;;;;;;5.30;2.72;;;;;;;;;;4152961;34;20117;-63
2022/07/12 12:33:46;;;;;;;7.93;3.10;;;;;;;;;;4150501;34;20138;-64
2022/07/12 12:36:18;;;;;;;6.80;3.45;;;;;;;;;;4150716;34;20449;-63
2022/07/12 12:38:44;;;;;;;5.60;2.65;;;;;;;;;;4150514;34;20468;-64
2022/07/12 12:41:11;;;;;;;5.57;2.60;;;;;;;;;;4150771;34;20464;-64
2022/07/12 12:43:37;;;;;;;5.87;2.75;;;;;;;;;;4150792;34;20142;-66
2022/07/12 12:46:04;;;;;;;2.92;2.55;;;;;;;;;;4150778;34;20523;-65
2022/07/12 12:48:31;;;;;;;9.60;2.83;;;;;;;;;;4150641;34;20114;-64
2022/07/12 12:51:05;;;;;;;9.75;2.67;;;;;;;;;;4150532;34;20706;-65
2022/07/12 12:53:31;;;;;;;2.17;1.87;;;;;;;;;;4150496;34;20205;-64
2022/07/12 12:55:57;;;;;;;5.00;2.55;;;;;;;;;;4150607;34;20535;-64
2022/07/12 12:58:24;;;;;;;7.30;2.45;;;;;;;;;;4150509;34;20223;-62
2022/07/12 13:00:52;;;;;;;8.05;3.83;;;;;;;;;;4150515;34;20103;-66
2022/07/12 13:03:19;;;;;;;3.28;2.85;;;;;;;;;;4150601;34;20099;-65
2022/07/12 13:05:46;;;;;;;3.80;2.87;;;;;;;;;;4150620;34;20122;-62
2022/07/12 13:08:13;;;;;;;6.80;3.40;;;;;;;;;;4115500;34;20521;-63
2022/07/12 13:10:40;;;;;;;7.80;3.25;;;;;;;;;;4150310;34;20106;-63
2022/07/12 13:13:07;;;;;;;5.82;3.50;;;;;;;;;;4150269;34;20547;-63
2022/07/12 13:15:34;;;;;;;9.43;2.90;;;;;;;;;;4150441;34;20095;-64
2022/07/12 13:18:01;;;;;;;7.43;3.10;;;;;;;;;;4150571;34;20124;-64
2022/07/12 13:20:28;;;;;;;4.25;2.72;;;;;;;;;;4150419;34;20461;-64
2022/07/12 13:22:55;;;;;;;3.65;2.78;;;;;;;;;;4150274;34;20106;-64
2022/07/12 13:25:21;;;;;;;7.10;2.90;;;;;;;;;;4150390;34;20110;-67
2022/07/12 13:27:47;;;;;;;6.82;3.28;;;;;;;;;;4137967;34;20115;-64
2022/07/12 13:30:15;;;;;;;12.70;3.72;;;;;;;;;;4150333;34;20118;-65
2022/07/12 13:32:42;;;;;;;8.00;3.53;;;;;;;;;;4150070;34;20105;-64
2022/07/12 13:35:09;;;;;;;8.70;2.92;;;;;;;;;;4148918;34;20453;-66
2022/07/12 13:37:36;;;;;;;6.22;3.33;;;;;;;;;;4150254;34;20104;-66
2022/07/12 13:40:13;;;;;;;6.18;2.60;;;;;;;;;;4137886;34;20119;-65
2022/07/12 13:42:39;;;;;;;5.22;2.80;;;;;;;;;;4150229;34;20095;-66
2022/07/12 13:45:07;;;;;;;7.78;2.75;;;;;;;;;;4150103;34;20128;-66
2022/07/12 13:47:34;;;;;;;11.73;3.12;;;;;;;;;;4150221;34;20115;-65
2022/07/12 13:50:00;;;;;;;3.78;2.30;;;;;;;;;;4150233;34;20499;-65
2022/07/12 13:52:26;;;;;;;3.58;2.60;;;;;;;;;;4150261;34;20115;-66
2022/07/12 13:54:52;;;;;;;7.32;3.17;;;;;;;;;;4149964;34;20508;-65
2022/07/12 13:57:18;;;;;;;7.15;2.95;;;;;;;;;;4148892;34;20111;-64
2022/07/12 13:59:45;;;;;;;6.68;2.75;;;;;;;;;;4150175;34;20201;-62
2022/07/12 14:02:12;;;;;;;6.45;3.08;;;;;;;;;;4150053;34;20091;-62
2022/07/12 14:04:38;;;;;;;12.73;3.35;;;;;;;;;;4137608;34;20125;-62
2022/07/12 14:07:04;;;;;;;12.00;3.20;;;;;;;;;;4148654;34;20107;-64
2022/07/12 14:09:30;;;;;;;14.05;3.28;;;;;;;;;;4149813;34;20227;-62
2022/07/12 14:49:11;;;;;;;19.23;4.22;;;;;;;;;;4149617;34;20114;-65
2022/07/12 14:55:13;;;;;;;9.45;3.50;;;;;;;;;;4149460;34;20122;-63
2022/07/12 14:57:39;;;;;;;4.30;3.12;;;;;;;;;;4149698;34;20196;-63
2022/07/12 15:00:07;;;;;;;9.95;2.90;;;;;;;;;;4137101;34;20131;-65
2022/07/12 15:02:37;;;;;;;3.95;2.92;;;;;;;;;;4149423;34;20118;-65
2022/07/12 15:05:05;;;;;;;8.18;3.05;;;;;;;;;;4149717;34;20103;-64
2022/07/12 15:07:31;;;;;;;9.38;3.17;;;;;;;;;;4149360;34;20119;-64
2022/07/12 15:09:57;;;;;;;12.25;3.75;;;;;;;;;;4149311;34;20106;-64
2022/07/12 15:12:24;;;;;;;5.28;3.20;;;;;;;;;;4149238;34;20131;-65
2022/07/12 15:14:51;;;;;;;7.45;3.40;;;;;;;;;;4147907;34;20551;-65
2022/07/12 15:17:18;;;;;;;7.28;3.28;;;;;;;;;;4149458;34;20107;-65
2022/07/12 15:19:45;;;;;;;9.70;4.00;;;;;;;;;;4149313;34;20119;-65
2022/07/12 15:22:14;;;;;;;4.47;3.72;;;;;;;;;;4149135;34;20103;-65
2022/07/12 15:24:41;;;;;;;7.47;2.85;;;;;;;;;;4147743;34;20126;-65
2022/07/12 15:27:08;;;;;;;4.45;3.10;;;;;;;;;;4149185;34;20106;-65
2022/07/12 15:29:40;;;;;;;18.33;4.28;;;;;;;;;;4149272;34;20091;-65
2022/07/12 15:32:06;;;;;;;7.18;3.75;;;;;;;;;;4149346;34;20127;-63
2022/07/12 15:34:32;;;;;;;8.55;4.55;;;;;;;;;;4147559;34;20114;-63
2022/07/12 15:36:58;;;;;;;8.65;6.05;;;;;;;;;;4149101;34;20464;-62
2022/07/12 15:39:24;;;;;;;11.52;6.35;;;;;;;;;;4148954;34;20126;-62
2022/07/12 15:41:50;;;;;;;13.82;5.15;;;;;;;;;;4148996;34;20220;-63
2022/07/12 15:44:18;;;;;;;8.48;5.57;;;;;;;;;;4136745;34;20183;-63
2022/07/12 15:46:45;;;;;;;6.05;4.47;;;;;;;;;;4149011;34;20106;-62
2022/07/12 15:49:11;;;;;;;8.15;4.32;;;;;;;;;;4148959;34;20122;-64
2022/07/12 15:54:22;;;;;;;6.35;4.10;;;;;;;;;;4148881;34;20095;-64
2022/07/12 15:56:49;;;;;;;10.38;4.90;;;;;;;;;;4148337;34;20095;-61
2022/07/12 15:59:16;;;;;;;4.93;3.83;;;;;;;;;;4136458;34;20119;-63
2022/07/12 16:01:42;;;;;;;5.05;3.58;;;;;;;;;;4148736;34;20248;-63
2022/07/12 16:04:09;;;;;;;9.07;4.30;;;;;;;;;;4147982;34;20103;-65
2022/07/12 16:06:35;;;;;;;7.80;4.50;;;;;;;;;;4149871;34;20197;-64
2022/07/12 16:09:03;;;;;;;10.15;3.62;;;;;;;;;;4150988;34;20760;-65
2022/07/12 16:11:29;;;;;;;6.20;3.92;;;;;;;;;;4151184;34;20135;-66
2022/07/12 16:13:55;;;;;;;4.43;3.42;;;;;;;;;;4150766;34;20107;-63
2022/07/12 16:16:21;;;;;;;4.47;3.15;;;;;;;;;;4127200;34;20106;-64
2022/07/12 16:18:47;;;;;;;3.55;2.90;;;;;;;;;;4150781;34;20098;-63
2022/07/12 16:21:16;;;;;;;3.75;3.05;;;;;;;;;;4150766;34;20099;-65
2022/07/12 16:23:42;;;;;;;3.87;3.30;;;;;;;;;;4150867;34;20095;-63
2022/07/12 16:26:09;;;;;;;9.85;3.20;;;;;;;;;;4138186;34;20107;-65
2022/07/12 16:28:35;;;;;;;3.80;3.30;;;;;;;;;;4150786;34;20118;-65
2022/07/12 16:31:01;;;;;;;8.98;3.22;;;;;;;;;;4150796;34;20528;-65
2022/07/12 16:33:27;;;;;;;5.28;2.85;;;;;;;;;;4150670;34;20107;-65
2022/07/12 16:35:53;;;;;;;11.65;5.00;;;;;;;;;;4138578;34;20127;-65
2022/07/12 16:38:19;;;;;;;7.95;4.10;;;;;;;;;;4150684;34;20204;-67
2022/07/12 16:40:46;;;;;;;9.05;5.85;;;;;;;;;;4150778;34;20118;-66
2022/07/12 16:43:12;;;;;;;8.25;3.72;;;;;;;;;;4150662;34;20184;-65
2022/07/12 16:45:38;;;;;;;6.82;4.07;;;;;;;;;;4150673;34;20128;-67